createdAt,value
2023-01-20T00:01:15.451Z,15.68
2023-01-20T00:04:22.904Z,19.63
2023-01-20T00:07:28.454Z,18.80
2023-01-20T00:10:33.497Z,19.65
2023-01-20T00:13:39.151Z,22.30
2023-01-20T00:16:47.057Z,20.58
2023-01-20T00:19:52.707Z,20.75
2023-01-20T00:22:58.080Z,19.90
2023-01-20T00:26:06.804Z,19.42
2023-01-20T00:29:12.397Z,20.88
2023-01-20T00:32:23.912Z,21.15
2023-01-20T00:35:28.957Z,16.48
2023-01-20T00:38:34.488Z,20.80
2023-01-20T00:41:39.432Z,22.30
2023-01-20T00:44:45.072Z,21.90
2023-01-20T00:47:55.981Z,22.65
2023-01-20T00:51:01.675Z,20.63
2023-01-20T00:54:07.004Z,20.00
2023-01-20T00:57:15.562Z,20.92
2023-01-20T01:00:21.751Z,21.33
2023-01-20T01:03:32.523Z,24.45
2023-01-20T01:06:39.699Z,19.15
2023-01-20T01:09:45.731Z,21.73
2023-01-20T01:12:52.639Z,20.77
2023-01-20T01:15:58.071Z,17.50
2023-01-20T01:19:06.297Z,20.45
2023-01-20T01:22:13.540Z,22.15
2023-01-20T01:25:22.032Z,24.40
2023-01-20T01:28:29.740Z,21.98
2023-01-20T01:31:35.205Z,18.48
2023-01-20T01:34:45.652Z,22.83
2023-01-20T01:37:51.231Z,19.10
2023-01-20T01:40:57.446Z,23.90
2023-01-20T01:44:17.219Z,17.40
2023-01-20T01:47:23.189Z,20.98
2023-01-20T01:50:33.287Z,26.58
2023-01-20T01:53:42.884Z,25.25
2023-01-20T01:56:51.728Z,23.35
2023-01-20T01:59:57.405Z,24.75
2023-01-20T02:03:02.679Z,19.63
2023-01-20T02:06:15.917Z,19.30
2023-01-20T02:09:24.056Z,19.77
2023-01-20T02:12:30.201Z,20.38
2023-01-20T02:15:39.071Z,21.75
2023-01-20T02:18:50.067Z,19.52
2023-01-20T02:22:08.892Z,22.95
2023-01-20T02:25:22.900Z,19.02
2023-01-20T02:28:38.831Z,21.73
2023-01-20T02:32:07.923Z,23.73
2023-01-20T02:35:17.763Z,18.67
2023-01-20T02:38:27.596Z,17.67
2023-01-20T02:41:38.607Z,21.60
2023-01-20T02:44:45.815Z,24.88
2023-01-20T02:47:54.150Z,20.67
2023-01-20T02:51:05.328Z,17.50
2023-01-20T02:54:11.907Z,18.40
2023-01-20T02:57:19.358Z,22.67
2023-01-20T03:00:26.321Z,27.35
2023-01-20T03:03:34.261Z,22.30
2023-01-20T03:06:45.490Z,18.60
2023-01-20T03:09:55.723Z,22.35
2023-01-20T03:13:04.350Z,20.75
2023-01-20T03:16:12.158Z,19.63
2023-01-20T03:19:20.232Z,19.33
2023-01-20T03:22:28.817Z,21.23
2023-01-20T03:25:38.475Z,22.73
2023-01-20T03:28:44.824Z,26.10
2023-01-20T03:31:51.753Z,21.13
2023-01-20T03:34:58.176Z,23.20
2023-01-20T03:38:05.844Z,25.23
2023-01-20T03:41:18.851Z,24.95
2023-01-20T03:44:27.464Z,25.15
2023-01-20T03:47:39.446Z,24.17
2023-01-20T03:50:48.741Z,25.80
2023-01-20T03:54:00.918Z,28.08
2023-01-20T03:57:13.985Z,23.10
2023-01-20T04:00:20.418Z,27.25
2023-01-20T04:03:28.340Z,29.08
2023-01-20T04:06:35.067Z,29.40
2023-01-20T04:09:46.037Z,26.95
2023-01-20T04:12:51.942Z,26.77
2023-01-20T04:15:59.695Z,31.80
2023-01-20T04:19:06.905Z,27.30
2023-01-20T04:22:16.051Z,30.77
2023-01-20T04:25:28.688Z,34.88
2023-01-20T04:28:33.700Z,29.45
2023-01-20T04:31:40.518Z,29.33
2023-01-20T04:34:46.021Z,35.60
2023-01-20T04:37:52.586Z,32.55
2023-01-20T04:41:03.498Z,31.67
2023-01-20T04:44:09.356Z,31.42
2023-01-20T04:47:14.659Z,31.15
2023-01-20T04:50:20.298Z,31.20
2023-01-20T04:53:25.334Z,29.38
2023-01-20T04:56:35.058Z,26.08
2023-01-20T04:59:40.172Z,32.78
2023-01-20T05:02:45.791Z,38.38
2023-01-20T05:05:54.979Z,30.65
2023-01-20T05:09:01.100Z,34.42
2023-01-20T05:12:10.770Z,32.85
2023-01-20T05:15:16.666Z,33.20
2023-01-20T05:18:22.110Z,31.98
2023-01-20T05:21:30.493Z,33.40
2023-01-20T05:24:35.889Z,39.08
2023-01-20T05:27:46.168Z,26.52
2023-01-20T05:30:51.940Z,36.33
2023-01-20T05:34:00.363Z,32.45
2023-01-20T05:37:05.775Z,25.25
2023-01-20T05:40:13.909Z,24.23
2023-01-20T05:43:22.099Z,24.88
2023-01-20T05:46:27.806Z,23.05
2023-01-20T05:49:33.471Z,24.98
2023-01-20T05:52:40.389Z,22.85
2023-01-20T05:55:46.327Z,22.15
2023-01-20T05:58:56.624Z,23.08
2023-01-20T06:02:02.713Z,27.58
2023-01-20T06:05:10.311Z,23.90
2023-01-20T06:08:17.456Z,24.35
2023-01-20T06:11:25.273Z,25.63
2023-01-20T06:14:33.626Z,23.98
2023-01-20T06:17:40.194Z,21.75
2023-01-20T06:20:45.598Z,24.10
2023-01-20T06:23:54.134Z,27.35
2023-01-20T06:27:00.446Z,25.55
2023-01-20T06:30:09.990Z,23.42
2023-01-20T06:33:15.629Z,23.85
2023-01-20T06:36:21.378Z,20.77
2023-01-20T06:39:26.733Z,25.15
2023-01-20T06:42:34.479Z,25.38
2023-01-20T06:45:43.052Z,26.17
2023-01-20T06:48:49.394Z,21.05
2023-01-20T06:51:56.980Z,22.75
2023-01-20T06:55:05.015Z,24.70
2023-01-20T06:58:10.273Z,22.70
2023-01-20T07:01:22.474Z,20.73
2023-01-20T07:04:27.791Z,22.77
2023-01-20T07:07:38.560Z,22.38
2023-01-20T07:10:45.985Z,23.77
2023-01-20T07:13:52.128Z,24.20
2023-01-20T07:17:00.017Z,23.65
2023-01-20T07:20:06.923Z,24.23
2023-01-20T07:23:14.062Z,25.20
2023-01-20T07:26:20.484Z,22.92
2023-01-20T07:29:25.690Z,26.50
2023-01-20T07:32:39.300Z,22.60
2023-01-20T07:35:44.955Z,23.00
2023-01-20T07:38:51.328Z,19.95
2023-01-20T07:41:57.800Z,20.38
2023-01-20T07:45:03.884Z,22.58
2023-01-20T07:48:12.895Z,22.35
2023-01-20T07:51:21.870Z,24.95
2023-01-20T07:54:28.993Z,17.55
2023-01-20T07:57:34.921Z,20.17
2023-01-20T08:00:42.390Z,20.95
2023-01-20T08:03:51.554Z,24.80
2023-01-20T08:06:56.937Z,28.17
2023-01-20T08:10:02.712Z,18.63
2023-01-20T08:13:09.252Z,24.85
2023-01-20T08:16:16.783Z,27.80
2023-01-20T08:19:34.055Z,22.65
2023-01-20T08:22:39.648Z,26.52
2023-01-20T08:25:44.850Z,26.73
2023-01-20T08:28:51.623Z,25.17
2023-01-20T08:31:57.129Z,24.13
2023-01-20T08:35:05.668Z,27.08
2023-01-20T08:38:11.011Z,27.35
2023-01-20T08:41:17.621Z,26.67
2023-01-20T08:44:25.093Z,22.63
2023-01-20T08:47:31.208Z,19.55
2023-01-20T08:50:39.876Z,25.77
2023-01-20T08:53:46.109Z,22.88
2023-01-20T08:56:55.098Z,20.80
2023-01-20T09:00:01.226Z,23.45
2023-01-20T09:03:06.922Z,22.83
2023-01-20T09:06:16.335Z,22.40
2023-01-20T09:09:23.010Z,24.38
2023-01-20T09:12:29.421Z,25.50
2023-01-20T09:15:34.962Z,26.33
2023-01-20T09:18:40.676Z,24.33
2023-01-20T09:21:51.932Z,24.48
2023-01-20T09:24:58.635Z,25.02
2023-01-20T09:28:06.634Z,31.83
2023-01-20T09:31:13.627Z,32.63
2023-01-20T09:34:22.696Z,24.33
2023-01-20T09:37:43.767Z,23.20
2023-01-20T09:41:06.462Z,24.40
2023-01-20T09:44:22.696Z,30.20
2023-01-20T09:47:31.548Z,23.60
2023-01-20T09:50:57.941Z,27.23
2023-01-20T09:54:09.156Z,25.48
2023-01-20T09:57:15.859Z,31.92
2023-01-20T10:00:25.281Z,23.75
2023-01-20T10:03:38.613Z,28.02
2023-01-20T10:10:03.217Z,26.50
2023-01-20T10:13:17.307Z,19.15
2023-01-20T10:16:27.425Z,23.40
2023-01-20T10:19:36.562Z,26.02
2023-01-20T10:22:44.629Z,26.67
2023-01-20T10:25:56.993Z,25.00
2023-01-20T10:29:03.473Z,29.25
2023-01-20T10:32:11.153Z,26.55
2023-01-20T10:35:19.670Z,22.83
2023-01-20T10:38:32.314Z,21.60
2023-01-20T10:41:42.999Z,22.83
2023-01-20T10:44:48.839Z,22.83
2023-01-20T10:47:57.640Z,14.45
2023-01-20T10:51:08.111Z,24.02
2023-01-20T10:54:19.308Z,20.33
2023-01-20T10:57:30.727Z,20.67
2023-01-20T11:00:37.227Z,19.98
2023-01-20T11:03:44.014Z,19.13
2023-01-20T11:06:52.964Z,19.20
2023-01-20T11:09:58.656Z,23.05
2023-01-20T11:13:10.411Z,19.48
2023-01-20T11:16:18.867Z,23.63
2023-01-20T11:19:25.998Z,19.08
2023-01-20T11:22:32.744Z,19.00
2023-01-20T11:25:38.408Z,18.33
2023-01-20T11:28:59.173Z,15.45
2023-01-20T11:32:08.057Z,16.73
2023-01-20T11:35:25.460Z,17.02
2023-01-20T11:38:34.902Z,15.25
2023-01-20T11:41:44.956Z,18.63
2023-01-20T11:44:50.962Z,19.13
2023-01-20T11:48:21.765Z,22.38
2023-01-20T11:51:29.987Z,20.00
2023-01-20T11:54:37.208Z,19.98
2023-01-20T11:57:46.407Z,17.05
2023-01-20T12:00:55.120Z,19.17
2023-01-20T12:04:19.256Z,21.60
2023-01-20T12:07:26.882Z,18.75
2023-01-20T12:10:35.560Z,19.70
2023-01-20T12:13:58.600Z,21.35
2023-01-20T12:17:09.748Z,22.85
2023-01-20T12:20:24.775Z,19.73
2023-01-20T12:23:36.203Z,18.90
2023-01-20T12:26:41.400Z,22.13
2023-01-20T12:29:49.136Z,16.05
2023-01-20T12:32:55.300Z,18.95
2023-01-20T12:36:21.697Z,17.05
2023-01-20T12:39:35.498Z,17.55
2023-01-20T12:43:08.071Z,23.45
2023-01-20T12:46:29.934Z,19.50
2023-01-20T12:49:47.390Z,19.08
2023-01-20T12:53:00.437Z,18.38
2023-01-20T12:56:13.341Z,18.63
2023-01-20T12:59:24.790Z,18.55
2023-01-20T13:02:46.072Z,21.05
2023-01-20T13:06:08.060Z,19.77
2023-01-20T13:09:21.884Z,17.60
2023-01-20T13:12:40.855Z,18.98
2023-01-20T13:15:49.032Z,16.98
2023-01-20T13:19:04.114Z,20.38
2023-01-20T13:22:12.979Z,23.45
2023-01-20T13:25:19.488Z,25.33
2023-01-20T13:28:29.012Z,22.08
2023-01-20T13:31:46.719Z,29.52
2023-01-20T13:34:52.657Z,25.58
2023-01-20T13:38:01.337Z,26.90
2023-01-20T13:41:09.805Z,26.38
2023-01-20T13:44:31.732Z,27.00
2023-01-20T13:47:52.714Z,29.77
2023-01-20T13:51:25.569Z,29.30
2023-01-20T13:57:44.101Z,31.80
2023-01-20T14:00:52.692Z,31.75
2023-01-20T14:04:05.022Z,29.27
2023-01-20T14:07:24.885Z,30.60
2023-01-20T14:10:30.292Z,29.70
2023-01-20T14:13:37.511Z,32.25
2023-01-20T14:16:44.505Z,28.55
2023-01-20T14:19:51.075Z,37.38
2023-01-20T14:22:59.362Z,32.30
2023-01-20T14:26:06.162Z,31.95
2023-01-20T14:29:20.797Z,35.78
2023-01-20T14:32:31.928Z,30.00
2023-01-20T14:35:40.223Z,32.35
2023-01-20T14:38:57.292Z,28.33
2023-01-20T14:42:04.454Z,31.80
2023-01-20T14:45:22.801Z,28.50
2023-01-20T14:48:34.904Z,31.38
2023-01-20T14:51:43.642Z,28.92
2023-01-20T14:54:56.607Z,28.70
2023-01-20T14:58:02.628Z,33.17
2023-01-20T15:01:08.780Z,25.40
2023-01-20T15:04:15.556Z,28.67
2023-01-20T15:07:22.550Z,31.45
2023-01-20T15:10:34.426Z,25.13
2023-01-20T15:13:44.323Z,29.40
2023-01-20T15:16:53.476Z,28.08
2023-01-20T15:19:59.396Z,27.98
2023-01-20T15:23:05.173Z,31.95
2023-01-20T15:26:25.033Z,27.38
2023-01-20T15:29:32.649Z,30.05
2023-01-20T15:32:37.977Z,26.63
2023-01-20T15:35:45.774Z,28.25
2023-01-20T15:38:51.057Z,22.33
2023-01-20T15:41:59.621Z,17.85
2023-01-20T15:45:04.888Z,21.45
2023-01-20T15:48:19.707Z,27.48
2023-01-20T15:51:25.020Z,28.17
2023-01-20T15:54:36.234Z,25.35
2023-01-20T15:57:44.278Z,48.00
2023-01-20T16:00:51.315Z,59.42
2023-01-20T16:04:00.716Z,40.60
2023-01-20T16:07:15.804Z,37.08
2023-01-20T16:10:23.748Z,32.08
2023-01-20T16:13:32.321Z,29.42
2023-01-20T16:16:37.784Z,24.70
2023-01-20T16:19:44.982Z,25.38
2023-01-20T16:22:52.420Z,23.67
2023-01-20T16:26:01.897Z,24.48
2023-01-20T16:29:12.403Z,21.27
2023-01-20T16:32:22.142Z,23.90
2023-01-20T16:35:28.147Z,25.38
2023-01-20T16:38:36.582Z,24.23
2023-01-20T16:41:41.831Z,26.17
2023-01-20T16:44:49.935Z,22.13
2023-01-20T16:47:57.464Z,23.38
2023-01-20T16:51:06.602Z,26.20
2023-01-20T16:54:14.629Z,24.23
2023-01-20T16:57:31.690Z,24.33
2023-01-20T17:00:40.701Z,24.60
2023-01-20T17:03:49.237Z,28.90
2023-01-20T17:06:55.755Z,28.55
2023-01-20T17:10:01.722Z,22.38
2023-01-20T17:13:13.887Z,26.80
2023-01-20T17:19:27.912Z,26.20
2023-01-20T17:22:33.497Z,23.42
2023-01-20T17:25:38.839Z,27.95
2023-01-20T17:28:47.004Z,26.35
2023-01-20T17:31:52.382Z,23.88
2023-01-20T17:35:01.812Z,24.95
2023-01-20T17:38:07.196Z,24.92
2023-01-20T17:41:12.889Z,22.52
2023-01-20T17:44:20.382Z,21.60
2023-01-20T17:47:31.405Z,20.52
2023-01-20T17:50:39.740Z,26.13
2023-01-20T17:53:45.659Z,25.63
2023-01-20T17:56:50.850Z,22.75
2023-01-20T17:59:56.708Z,21.80
2023-01-20T18:03:02.138Z,29.58
2023-01-20T18:06:11.541Z,23.17
2023-01-20T18:09:17.522Z,27.27
2023-01-20T18:12:29.823Z,24.20
2023-01-20T18:15:42.516Z,23.80
2023-01-20T18:18:49.127Z,24.98
2023-01-20T18:22:00.958Z,23.45
2023-01-20T18:25:06.474Z,24.98
2023-01-20T18:28:12.738Z,23.77
2023-01-20T18:31:28.797Z,24.80
2023-01-20T18:34:38.161Z,23.40
2023-01-20T18:37:46.531Z,26.52
2023-01-20T18:40:52.103Z,24.33
2023-01-20T18:44:02.647Z,26.20
2023-01-20T18:47:07.773Z,28.27
2023-01-20T18:50:14.314Z,21.83
2023-01-20T18:53:25.212Z,20.92
2023-01-20T18:56:33.841Z,25.27
2023-01-20T18:59:39.483Z,27.52
2023-01-20T19:02:52.524Z,26.55
2023-01-20T19:05:57.840Z,24.30
2023-01-20T19:09:08.145Z,28.08
2023-01-20T19:12:15.613Z,25.75
2023-01-20T19:15:23.191Z,23.35
2023-01-20T19:18:32.897Z,27.17
2023-01-20T19:21:45.135Z,24.02
2023-01-20T19:24:56.506Z,27.48
2023-01-20T19:28:08.759Z,27.02
2023-01-20T19:31:31.409Z,21.98
2023-01-20T19:34:39.455Z,23.52
2023-01-20T19:37:45.848Z,25.40
2023-01-20T19:40:54.647Z,22.58
2023-01-20T19:44:01.188Z,28.08
2023-01-20T19:47:25.890Z,26.30
2023-01-20T19:50:39.340Z,24.50
2023-01-20T19:53:46.471Z,25.95
2023-01-20T19:56:56.113Z,25.15
2023-01-20T20:00:05.685Z,21.65
2023-01-20T20:03:12.616Z,18.33
2023-01-20T20:06:31.216Z,23.55
2023-01-20T20:09:45.345Z,26.48
2023-01-20T20:12:55.236Z,22.42
2023-01-20T20:16:06.797Z,26.98
2023-01-20T20:19:14.360Z,25.85
2023-01-20T20:22:20.951Z,26.02
2023-01-20T20:25:29.355Z,20.48
2023-01-20T20:28:39.787Z,22.88
2023-01-20T20:31:48.134Z,21.23
2023-01-20T20:34:57.382Z,23.85
2023-01-20T20:38:11.878Z,19.52
2023-01-20T20:41:35.552Z,20.08
2023-01-20T20:44:46.934Z,20.75
2023-01-20T20:48:02.021Z,22.30
2023-01-20T20:51:12.042Z,21.70
2023-01-20T20:54:17.656Z,19.08
2023-01-20T20:57:23.712Z,19.60
2023-01-20T21:00:33.062Z,18.05
2023-01-20T21:03:39.330Z,21.98
2023-01-20T21:06:47.024Z,18.45
2023-01-20T21:09:54.323Z,21.27
2023-01-20T21:13:01.641Z,21.80
2023-01-20T21:16:14.069Z,19.98
2023-01-20T21:19:27.735Z,24.30
2023-01-20T21:22:33.893Z,22.77
2023-01-20T21:25:39.074Z,21.48
2023-01-20T21:28:45.697Z,20.92
2023-01-20T21:31:53.884Z,24.67
2023-01-20T21:35:02.135Z,29.83
2023-01-20T21:38:07.150Z,29.30
2023-01-20T21:41:12.937Z,30.35
2023-01-20T21:44:30.609Z,31.08
2023-01-20T21:47:39.318Z,24.23
2023-01-20T21:50:58.501Z,20.15
2023-01-20T21:54:04.511Z,24.13
2023-01-20T21:57:10.165Z,24.98
2023-01-20T22:00:16.296Z,21.13
2023-01-20T22:03:27.141Z,18.33
2023-01-20T22:06:32.806Z,25.75
2023-01-20T22:09:38.991Z,23.40
2023-01-20T22:12:46.503Z,22.52
2023-01-20T22:15:54.763Z,23.98
2023-01-20T22:19:04.005Z,25.60
2023-01-20T22:22:16.439Z,26.50
2023-01-20T22:25:28.128Z,25.13
2023-01-20T22:28:39.922Z,29.23
2023-01-20T22:31:45.745Z,33.90
2023-01-20T22:34:58.169Z,28.38
2023-01-20T22:38:06.838Z,28.42
2023-01-20T22:41:13.775Z,32.40
2023-01-20T22:44:22.175Z,27.85
2023-01-20T22:47:27.607Z,27.98
2023-01-20T22:50:36.231Z,26.42
2023-01-20T22:53:41.989Z,30.67
2023-01-20T22:56:50.306Z,31.38
2023-01-20T22:59:56.391Z,30.90
2023-01-20T23:03:04.849Z,25.70
2023-01-20T23:06:13.653Z,25.10
2023-01-20T23:09:23.154Z,24.88
2023-01-20T23:12:34.662Z,27.92
2023-01-20T23:15:44.399Z,30.63
2023-01-20T23:18:50.571Z,25.17
2023-01-20T23:22:01.612Z,28.50
2023-01-20T23:25:09.532Z,28.45
2023-01-20T23:28:16.461Z,26.20
2023-01-20T23:31:23.874Z,32.78
2023-01-20T23:34:37.161Z,32.58
2023-01-20T23:37:45.005Z,29.73
2023-01-20T23:40:51.073Z,30.75
2023-01-20T23:43:58.758Z,28.33
2023-01-20T23:47:07.740Z,33.63
2023-01-20T23:50:14.540Z,29.65
2023-01-20T23:53:24.375Z,30.83
2023-01-20T23:56:30.836Z,26.75
2023-01-20T23:59:38.899Z,32.97
